CTN656 LDZA-LDSP
Flight info
| Callsign | CTN656 |
|---|---|
| Flight time | 0h 33m |
| Altitude | 25000 |
| Route | NIVES DCT NUPSO |
| Aircraft | A319/M-SDE2FGIRWY/LB1 |
Departure
| Time | 2026-05-03 20:33 |
|---|---|
| Airport | Zagreb Franjo Tuđman International Airport (LDZA) |
Arrival
| Time | 2026-05-03 21:06 |
|---|---|
| Airport | Split Saint Jerome Airport (LDSP) |
| Time | Latitude | Longitude | Altitude | Speed | Heading |
|---|---|---|---|---|---|
| 2026-05-03 20:15 | 45.74290 | 16.08006 | 359 ft | 0 kts | 136° |
| 2026-05-03 20:23 | 45.74291 | 16.08005 | 359 ft | 2 kts | 136° |
| 2026-05-03 20:23 | 45.74308 | 16.07983 | 362 ft | 3 kts | 136° |
| 2026-05-03 20:24 | 45.74324 | 16.07960 | 362 ft | 3 kts | 136° |
| 2026-05-03 20:24 | 45.74338 | 16.07942 | 363 ft | 3 kts | 133° |
| 2026-05-03 20:24 | 45.74354 | 16.07919 | 362 ft | 3 kts | 148° |
| 2026-05-03 20:24 | 45.74368 | 16.07908 | 362 ft | 3 kts | 176° |
| 2026-05-03 20:25 | 45.74379 | 16.07906 | 362 ft | 0 kts | 167° |
| 2026-05-03 20:27 | 45.74372 | 16.07908 | 361 ft | 3 kts | 171° |
| 2026-05-03 20:27 | 45.74342 | 16.07893 | 362 ft | 7 kts | 212° |
| 2026-05-03 20:27 | 45.74299 | 16.07830 | 361 ft | 10 kts | 226° |
| 2026-05-03 20:28 | 45.74249 | 16.07755 | 359 ft | 11 kts | 226° |
| 2026-05-03 20:28 | 45.74197 | 16.07676 | 363 ft | 11 kts | 226° |
| 2026-05-03 20:28 | 45.74142 | 16.07592 | 359 ft | 13 kts | 227° |
| 2026-05-03 20:28 | 45.74073 | 16.07486 | 359 ft | 14 kts | 227° |
| 2026-05-03 20:29 | 45.74088 | 16.07377 | 364 ft | 13 kts | 318° |
| 2026-05-03 20:29 | 45.74156 | 16.07286 | 359 ft | 14 kts | 316° |
| 2026-05-03 20:29 | 45.74219 | 16.07186 | 363 ft | 13 kts | 285° |
| 2026-05-03 20:29 | 45.74168 | 16.07081 | 359 ft | 13 kts | 226° |
| 2026-05-03 20:30 | 45.74103 | 16.06983 | 363 ft | 14 kts | 226° |
| 2026-05-03 20:30 | 45.74035 | 16.06880 | 359 ft | 14 kts | 226° |
| 2026-05-03 20:30 | 45.73965 | 16.06773 | 359 ft | 15 kts | 226° |
| 2026-05-03 20:30 | 45.73892 | 16.06663 | 362 ft | 15 kts | 226° |
| 2026-05-03 20:31 | 45.73818 | 16.06550 | 362 ft | 16 kts | 226° |
| 2026-05-03 20:31 | 45.73749 | 16.06446 | 359 ft | 11 kts | 226° |
| 2026-05-03 20:31 | 45.73767 | 16.06361 | 359 ft | 10 kts | 316° |
| 2026-05-03 20:31 | 45.73816 | 16.06296 | 360 ft | 9 kts | 316° |
| 2026-05-03 20:32 | 45.73856 | 16.06232 | 361 ft | 8 kts | 315° |
| 2026-05-03 20:32 | 45.73879 | 16.06248 | 364 ft | 2 kts | 47° |
| 2026-05-03 20:32 | 45.73884 | 16.06255 | 364 ft | 7 kts | 47° |
| 2026-05-03 20:32 | 45.74103 | 16.06592 | 361 ft | 86 kts | 47° |
| 2026-05-03 20:33 | 45.74674 | 16.07464 | 369 ft | 149 kts | 48° |
| 2026-05-03 20:33 | 45.75307 | 16.08601 | 986 ft | 145 kts | 59° |
| 2026-05-03 20:33 | 45.75732 | 16.09898 | 1581 ft | 144 kts | 74° |
| 2026-05-03 20:33 | 45.75971 | 16.11281 | 2178 ft | 142 kts | 86° |
| 2026-05-03 20:34 | 45.76018 | 16.12687 | 2741 ft | 141 kts | 97° |
| 2026-05-03 20:34 | 45.75869 | 16.14069 | 3265 ft | 141 kts | 107° |
| 2026-05-03 20:34 | 45.75657 | 16.15438 | 3760 ft | 140 kts | 104° |
| 2026-05-03 20:34 | 45.75435 | 16.16898 | 3975 ft | 161 kts | 104° |
| 2026-05-03 20:35 | 45.75033 | 16.18526 | 4070 ft | 190 kts | 130° |
| 2026-05-03 20:35 | 45.73856 | 16.19513 | 4307 ft | 213 kts | 174° |
| 2026-05-03 20:35 | 45.72326 | 16.19189 | 4680 ft | 236 kts | 198° |
| 2026-05-03 20:35 | 45.70709 | 16.18337 | 5151 ft | 259 kts | 203° |
| 2026-05-03 20:36 | 45.69013 | 16.17304 | 5911 ft | 269 kts | 205° |
| 2026-05-03 20:36 | 45.67276 | 16.16227 | 6798 ft | 275 kts | 205° |
| 2026-05-03 20:36 | 45.65498 | 16.15143 | 7669 ft | 280 kts | 204° |
| 2026-05-03 20:36 | 45.63683 | 16.14063 | 8552 ft | 285 kts | 202° |
| 2026-05-03 20:37 | 45.61828 | 16.12983 | 9415 ft | 290 kts | 201° |
| 2026-05-03 20:37 | 45.59939 | 16.11900 | 10246 ft | 297 kts | 201° |
| 2026-05-03 20:37 | 45.57942 | 16.10765 | 10571 ft | 321 kts | 201° |
| 2026-05-03 20:37 | 45.55804 | 16.09555 | 11035 ft | 337 kts | 201° |
| 2026-05-03 20:38 | 45.53636 | 16.08332 | 11756 ft | 342 kts | 201° |
| 2026-05-03 20:38 | 45.51407 | 16.07073 | 12546 ft | 346 kts | 201° |
| 2026-05-03 20:38 | 45.49157 | 16.05802 | 13337 ft | 350 kts | 201° |
| 2026-05-03 20:38 | 45.46876 | 16.04517 | 14094 ft | 354 kts | 200° |
| 2026-05-03 20:39 | 45.44575 | 16.03220 | 14766 ft | 358 kts | 201° |
| 2026-05-03 20:39 | 45.42247 | 16.01907 | 15424 ft | 362 kts | 201° |
| 2026-05-03 20:39 | 45.39882 | 16.00575 | 16059 ft | 368 kts | 201° |
| 2026-05-03 20:39 | 45.37486 | 15.99227 | 16705 ft | 372 kts | 201° |
| 2026-05-03 20:40 | 45.35063 | 15.97863 | 17353 ft | 377 kts | 201° |
| 2026-05-03 20:40 | 45.32611 | 15.96484 | 17987 ft | 382 kts | 201° |
| 2026-05-03 20:40 | 45.30128 | 15.95089 | 18594 ft | 386 kts | 201° |
| 2026-05-03 20:40 | 45.27612 | 15.93679 | 19172 ft | 390 kts | 201° |
| 2026-05-03 20:41 | 45.25080 | 15.92263 | 19769 ft | 393 kts | 201° |
| 2026-05-03 20:41 | 45.22460 | 15.91102 | 20366 ft | 396 kts | 192° |
| 2026-05-03 20:41 | 45.19717 | 15.90595 | 20964 ft | 399 kts | 182° |
| 2026-05-03 20:41 | 45.16931 | 15.90453 | 21560 ft | 402 kts | 182° |
| 2026-05-03 20:42 | 45.14123 | 15.90315 | 22152 ft | 405 kts | 182° |
| 2026-05-03 20:42 | 45.11295 | 15.90175 | 22739 ft | 408 kts | 182° |
| 2026-05-03 20:42 | 45.08443 | 15.90031 | 23302 ft | 411 kts | 182° |
| 2026-05-03 20:42 | 45.05571 | 15.89883 | 23825 ft | 415 kts | 182° |
| 2026-05-03 20:43 | 45.02673 | 15.89735 | 24229 ft | 419 kts | 182° |
| 2026-05-03 20:43 | 44.99740 | 15.89585 | 24629 ft | 424 kts | 182° |
| 2026-05-03 20:43 | 44.96780 | 15.89433 | 24994 ft | 428 kts | 182° |
| 2026-05-03 20:43 | 44.93846 | 15.89282 | 25098 ft | 426 kts | 182° |
| 2026-05-03 20:44 | 44.90913 | 15.89130 | 25127 ft | 419 kts | 182° |
| 2026-05-03 20:44 | 44.88003 | 15.88978 | 25124 ft | 417 kts | 182° |
| 2026-05-03 20:44 | 44.85107 | 15.88828 | 25123 ft | 416 kts | 182° |
| 2026-05-03 20:44 | 44.82215 | 15.88677 | 25127 ft | 417 kts | 182° |
| 2026-05-03 20:45 | 44.79310 | 15.88528 | 25131 ft | 417 kts | 182° |
| 2026-05-03 20:45 | 44.76416 | 15.88384 | 25132 ft | 417 kts | 182° |
| 2026-05-03 20:45 | 44.73513 | 15.88241 | 25065 ft | 416 kts | 182° |
| 2026-05-03 20:45 | 44.70649 | 15.88100 | 24827 ft | 410 kts | 182° |
| 2026-05-03 20:46 | 44.67809 | 15.87958 | 24591 ft | 407 kts | 182° |
| 2026-05-03 20:46 | 44.64991 | 15.87814 | 24352 ft | 404 kts | 182° |
| 2026-05-03 20:46 | 44.62186 | 15.87670 | 24120 ft | 402 kts | 182° |
| 2026-05-03 20:46 | 44.59392 | 15.87524 | 23888 ft | 400 kts | 182° |
| 2026-05-03 20:47 | 44.56617 | 15.87380 | 23649 ft | 398 kts | 182° |
| 2026-05-03 20:47 | 44.53852 | 15.87240 | 23374 ft | 396 kts | 182° |
| 2026-05-03 20:47 | 44.51100 | 15.87103 | 23100 ft | 395 kts | 182° |
| 2026-05-03 20:47 | 44.48372 | 15.86970 | 22753 ft | 389 kts | 182° |
| 2026-05-03 20:48 | 44.45673 | 15.86838 | 22286 ft | 387 kts | 182° |
| 2026-05-03 20:48 | 44.43032 | 15.86709 | 21826 ft | 384 kts | 182° |
| 2026-05-03 20:48 | 44.40372 | 15.86576 | 21347 ft | 381 kts | 182° |
| 2026-05-03 20:48 | 44.37732 | 15.86443 | 20873 ft | 379 kts | 182° |
| 2026-05-03 20:49 | 44.35098 | 15.86310 | 20393 ft | 377 kts | 182° |
| 2026-05-03 20:49 | 44.32479 | 15.86176 | 19914 ft | 376 kts | 182° |
| 2026-05-03 20:49 | 44.29873 | 15.86043 | 19449 ft | 374 kts | 181° |
| 2026-05-03 20:49 | 44.27275 | 15.85912 | 18956 ft | 374 kts | 181° |
| 2026-05-03 20:50 | 44.24679 | 15.85782 | 18488 ft | 373 kts | 181° |
| 2026-05-03 20:50 | 44.22087 | 15.85652 | 17973 ft | 371 kts | 181° |
| 2026-05-03 20:50 | 44.19517 | 15.85525 | 17501 ft | 369 kts | 181° |
| 2026-05-03 20:50 | 44.16960 | 15.85400 | 17046 ft | 366 kts | 181° |
| 2026-05-03 20:51 | 44.14428 | 15.85549 | 16614 ft | 362 kts | 171° |
| 2026-05-03 20:51 | 44.12000 | 15.86385 | 16175 ft | 359 kts | 159° |
| 2026-05-03 20:51 | 44.09749 | 15.87834 | 15742 ft | 355 kts | 151° |
| 2026-05-03 20:51 | 44.07563 | 15.89416 | 15316 ft | 353 kts | 151° |
| 2026-05-03 20:52 | 44.05385 | 15.90986 | 14897 ft | 352 kts | 151° |
| 2026-05-03 20:52 | 44.03216 | 15.92541 | 14462 ft | 350 kts | 152° |
| 2026-05-03 20:52 | 44.01055 | 15.94083 | 14039 ft | 349 kts | 152° |
| 2026-05-03 20:52 | 43.98898 | 15.95618 | 13579 ft | 347 kts | 152° |
| 2026-05-03 20:53 | 43.96759 | 15.97145 | 13144 ft | 344 kts | 152° |
| 2026-05-03 20:53 | 43.94664 | 15.98641 | 12711 ft | 341 kts | 152° |
| 2026-05-03 20:53 | 43.92533 | 16.00159 | 12275 ft | 339 kts | 152° |
| 2026-05-03 20:53 | 43.90470 | 16.01626 | 11850 ft | 336 kts | 152° |
| 2026-05-03 20:54 | 43.88345 | 16.02953 | 11421 ft | 335 kts | 161° |
| 2026-05-03 20:54 | 43.83756 | 16.03483 | 10598 ft | 330 kts | 189° |
| 2026-05-03 20:54 | 43.81544 | 16.02888 | 10477 ft | 318 kts | 191° |
| 2026-05-03 20:55 | 43.79404 | 16.02328 | 10293 ft | 309 kts | 191° |
| 2026-05-03 20:55 | 43.77302 | 16.01791 | 9972 ft | 305 kts | 190° |
| 2026-05-03 20:55 | 43.75224 | 16.01260 | 9475 ft | 303 kts | 190° |
| 2026-05-03 20:55 | 43.73167 | 16.00732 | 8923 ft | 299 kts | 191° |
| 2026-05-03 20:56 | 43.71136 | 16.00207 | 8544 ft | 295 kts | 191° |
| 2026-05-03 20:56 | 43.69125 | 15.99683 | 8225 ft | 293 kts | 191° |
| 2026-05-03 20:56 | 43.67131 | 15.99163 | 7901 ft | 290 kts | 191° |
| 2026-05-03 20:56 | 43.65158 | 15.98648 | 7527 ft | 288 kts | 191° |
| 2026-05-03 20:57 | 43.63202 | 15.98138 | 7162 ft | 285 kts | 191° |
| 2026-05-03 20:57 | 43.61260 | 15.97630 | 6803 ft | 283 kts | 191° |
| 2026-05-03 20:57 | 43.59330 | 15.97125 | 6440 ft | 281 kts | 191° |
| 2026-05-03 20:57 | 43.57416 | 15.96627 | 6072 ft | 279 kts | 191° |
| 2026-05-03 20:58 | 43.55512 | 15.96134 | 5721 ft | 277 kts | 191° |
| 2026-05-03 20:58 | 43.53622 | 15.95642 | 5371 ft | 276 kts | 191° |
| 2026-05-03 20:58 | 43.51762 | 15.95161 | 5028 ft | 275 kts | 191° |
| 2026-05-03 20:58 | 43.49863 | 15.94980 | 4672 ft | 273 kts | 175° |
| 2026-05-03 20:59 | 43.48096 | 15.95582 | 4566 ft | 251 kts | 157° |
| 2026-05-03 20:59 | 43.46646 | 15.96722 | 4474 ft | 232 kts | 142° |
| 2026-05-03 20:59 | 43.45387 | 15.98059 | 4383 ft | 224 kts | 142° |
| 2026-05-03 20:59 | 43.44174 | 15.99338 | 4275 ft | 215 kts | 142° |
| 2026-05-03 21:00 | 43.43007 | 16.00564 | 4177 ft | 208 kts | 142° |
| 2026-05-03 21:00 | 43.42620 | 16.00971 | 4144 ft | 208 kts | 142° |
| 2026-05-03 21:00 | 43.40829 | 16.03019 | 3995 ft | 193 kts | 124° |
| 2026-05-03 21:00 | 43.40432 | 16.04682 | 3898 ft | 180 kts | 88° |
| 2026-05-03 21:01 | 43.40762 | 16.06282 | 3798 ft | 172 kts | 54° |
| 2026-05-03 21:01 | 43.41485 | 16.07587 | 3698 ft | 172 kts | 50° |
| 2026-05-03 21:01 | 43.42212 | 16.08886 | 3517 ft | 171 kts | 49° |
| 2026-05-03 21:01 | 43.42935 | 16.10179 | 3308 ft | 171 kts | 49° |
| 2026-05-03 21:02 | 43.43658 | 16.11470 | 3087 ft | 170 kts | 49° |
| 2026-05-03 21:02 | 43.44381 | 16.12759 | 2865 ft | 170 kts | 49° |
| 2026-05-03 21:02 | 43.45098 | 16.14041 | 2642 ft | 169 kts | 49° |
| 2026-05-03 21:02 | 43.45811 | 16.15314 | 2424 ft | 168 kts | 49° |
| 2026-05-03 21:03 | 43.46522 | 16.16586 | 2199 ft | 166 kts | 50° |
| 2026-05-03 21:03 | 43.47224 | 16.17840 | 1981 ft | 165 kts | 51° |
| 2026-05-03 21:03 | 43.47921 | 16.19087 | 1768 ft | 164 kts | 51° |
| 2026-05-03 21:03 | 43.48611 | 16.20323 | 1553 ft | 160 kts | 51° |
| 2026-05-03 21:04 | 43.49253 | 16.21472 | 1361 ft | 147 kts | 50° |
| 2026-05-03 21:04 | 43.49863 | 16.22566 | 1169 ft | 142 kts | 50° |
| 2026-05-03 21:04 | 43.50458 | 16.23630 | 993 ft | 140 kts | 50° |
| 2026-05-03 21:04 | 43.51049 | 16.24690 | 807 ft | 138 kts | 50° |
| 2026-05-03 21:05 | 43.51633 | 16.25736 | 628 ft | 137 kts | 50° |
| 2026-05-03 21:05 | 43.52204 | 16.26762 | 409 ft | 132 kts | 49° |
| 2026-05-03 21:05 | 43.52757 | 16.27760 | 289 ft | 130 kts | 49° |
| 2026-05-03 21:05 | 43.53308 | 16.28740 | 104 ft | 127 kts | 51° |
| 2026-05-03 21:06 | 43.53759 | 16.29550 | 79 ft | 71 kts | 52° |
| 2026-05-03 21:06 | 43.53956 | 16.29901 | 73 ft | 33 kts | 52° |
| 2026-05-03 21:06 | 43.54049 | 16.30068 | 67 ft | 10 kts | 57° |
| 2026-05-03 21:06 | 43.54010 | 16.30098 | 72 ft | 9 kts | 197° |
| 2026-05-03 21:07 | 43.53936 | 16.30070 | 69 ft | 12 kts | 195° |
| 2026-05-03 21:07 | 43.53897 | 16.30042 | 62 ft | 1 kts | 236° |
| 2026-05-03 21:07 | 43.53895 | 16.30037 | 63 ft | 0 kts | 233° |
| 2026-05-03 21:08 | 43.53889 | 16.30026 | 62 ft | 5 kts | 231° |
| 2026-05-03 21:08 | 43.53858 | 16.29973 | 68 ft | 9 kts | 232° |
| 2026-05-03 21:08 | 43.53802 | 16.29872 | 68 ft | 16 kts | 232° |
| 2026-05-03 21:08 | 43.53733 | 16.29748 | 64 ft | 17 kts | 232° |
| 2026-05-03 21:09 | 43.53666 | 16.29626 | 65 ft | 13 kts | 233° |
| 2026-05-03 21:09 | 43.53595 | 16.29614 | 65 ft | 11 kts | 143° |
| 2026-05-03 21:09 | 43.53546 | 16.29672 | 68 ft | 7 kts | 117° |
| 2026-05-03 21:09 | 43.53547 | 16.29715 | 61 ft | 3 kts | 98° |
| 2026-05-03 21:10 | 43.53543 | 16.29738 | 62 ft | 1 kts | 102° |
| 2026-05-03 21:10 | 43.53543 | 16.29743 | 64 ft | 0 kts | 101° |